createdAt,value
2018-03-18T00:01:18.063Z,18.93
2018-03-18T00:03:49.008Z,16.33
2018-03-18T00:06:18.916Z,25.37
2018-03-18T00:08:48.675Z,15.60
2018-03-18T00:11:19.168Z,15.30
2018-03-18T00:13:48.973Z,10.80
2018-03-18T00:16:18.974Z,15.03
2018-03-18T00:18:48.669Z,12.53
2018-03-18T00:21:18.452Z,11.83
2018-03-18T00:23:48.700Z,20.30
2018-03-18T00:26:19.713Z,10.63
2018-03-18T00:28:51.029Z,12.10
2018-03-18T00:31:20.841Z,17.63
2018-03-18T00:33:51.519Z,11.90
2018-03-18T00:36:22.801Z,10.68
2018-03-18T00:38:52.584Z,9.50
2018-03-18T00:41:22.504Z,12.73
2018-03-18T00:43:52.283Z,9.20
2018-03-18T00:46:22.910Z,9.47
2018-03-18T00:48:52.748Z,8.83
2018-03-18T00:51:33.598Z,9.43
2018-03-18T00:54:04.093Z,8.77
2018-03-18T00:56:33.759Z,10.77
2018-03-18T00:59:03.468Z,17.73
2018-03-18T01:01:33.751Z,12.73
2018-03-18T01:04:03.441Z,12.13
2018-03-18T01:06:33.294Z,11.88
2018-03-18T01:09:03.841Z,10.67
2018-03-18T01:11:34.194Z,14.07
2018-03-18T01:14:04.005Z,13.67
2018-03-18T01:16:34.498Z,12.90
2018-03-18T01:19:05.034Z,9.77
2018-03-18T01:21:35.702Z,12.93
2018-03-18T01:24:05.421Z,10.50
2018-03-18T01:26:35.282Z,10.52
2018-03-18T01:29:05.766Z,10.60
2018-03-18T01:31:35.604Z,9.30
2018-03-18T01:34:06.034Z,7.83
2018-03-18T01:36:36.560Z,8.40
2018-03-18T01:39:06.701Z,8.37
2018-03-18T01:41:37.843Z,12.60
2018-03-18T01:44:08.346Z,9.97
2018-03-18T01:46:38.938Z,12.73
2018-03-18T01:49:08.681Z,13.80
2018-03-18T01:51:38.385Z,14.13
2018-03-18T01:54:08.077Z,10.03
2018-03-18T01:56:38.086Z,9.37
2018-03-18T01:59:07.870Z,12.83
2018-03-18T02:01:37.595Z,19.55
2018-03-18T02:04:07.273Z,12.40
2018-03-18T02:06:37.586Z,17.18
2018-03-18T02:09:08.519Z,15.90
2018-03-18T02:11:38.252Z,10.80
2018-03-18T02:14:08.205Z,17.43
2018-03-18T02:16:39.306Z,16.85
2018-03-18T02:19:09.728Z,10.27
2018-03-18T02:21:39.920Z,12.70
2018-03-18T02:24:09.758Z,30.50
2018-03-18T02:26:40.271Z,17.10
2018-03-18T02:29:10.022Z,28.87
2018-03-18T02:31:40.526Z,13.40
2018-03-18T02:34:11.057Z,11.60
2018-03-18T02:36:41.050Z,11.40
2018-03-18T02:39:10.747Z,19.30
2018-03-18T02:41:41.496Z,20.25
2018-03-18T02:44:11.183Z,17.50
2018-03-18T02:46:41.064Z,19.80
2018-03-18T02:49:12.669Z,17.67
2018-03-18T02:51:42.856Z,10.17
2018-03-18T02:54:12.585Z,12.70
2018-03-18T02:56:42.357Z,15.67
2018-03-18T02:59:12.134Z,20.55
2018-03-18T03:01:42.327Z,12.93
2018-03-18T03:04:13.266Z,25.10
2018-03-18T03:06:42.998Z,15.13
2018-03-18T03:09:13.726Z,11.13
2018-03-18T03:11:45.461Z,11.37
2018-03-18T03:14:15.863Z,16.20
2018-03-18T03:16:45.621Z,14.27
2018-03-18T03:19:15.354Z,9.60
2018-03-18T03:21:45.829Z,14.93
2018-03-18T03:24:16.188Z,10.37
2018-03-18T03:26:45.868Z,10.37
2018-03-18T03:29:15.631Z,16.73
2018-03-18T03:31:45.317Z,14.43
2018-03-18T03:34:16.492Z,15.73
2018-03-18T03:36:46.176Z,19.60
2018-03-18T03:39:15.873Z,13.33
2018-03-18T03:41:46.332Z,14.87
2018-03-18T03:44:16.819Z,12.33
2018-03-18T03:46:47.295Z,21.10
2018-03-18T03:49:17.042Z,12.90
2018-03-18T03:51:46.774Z,11.70
2018-03-18T03:54:17.548Z,11.25
2018-03-18T03:56:47.886Z,12.17
2018-03-18T03:59:17.685Z,15.27
2018-03-18T04:01:47.693Z,19.08
2018-03-18T04:04:17.898Z,12.37
2018-03-18T04:06:48.707Z,10.40
2018-03-18T04:09:18.463Z,12.23
2018-03-18T04:11:49.311Z,19.83
2018-03-18T04:14:19.032Z,10.20
2018-03-18T04:16:49.677Z,21.73
2018-03-18T04:19:19.424Z,13.30
2018-03-18T04:21:49.450Z,19.67
2018-03-18T04:24:20.426Z,13.10
2018-03-18T04:26:50.144Z,17.70
2018-03-18T04:29:19.883Z,10.80
2018-03-18T04:31:50.686Z,13.30
2018-03-18T04:34:20.466Z,13.70
2018-03-18T04:36:50.661Z,27.35
2018-03-18T04:39:20.912Z,20.48
2018-03-18T04:41:50.991Z,19.60
2018-03-18T04:44:22.250Z,43.60
2018-03-18T04:46:52.003Z,19.37
2018-03-18T04:49:21.850Z,23.00
2018-03-18T04:51:52.646Z,18.50
2018-03-18T04:54:22.416Z,21.60
2018-03-18T04:56:53.191Z,18.48
2018-03-18T04:59:22.888Z,17.53
2018-03-18T05:01:52.867Z,15.98
2018-03-18T05:04:23.508Z,14.30
2018-03-18T05:06:53.266Z,19.07
2018-03-18T05:09:23.266Z,18.87
2018-03-18T05:11:54.331Z,18.47
2018-03-18T05:14:24.661Z,21.57
2018-03-18T05:16:54.374Z,13.63
2018-03-18T05:19:24.122Z,17.97
2018-03-18T05:21:54.233Z,18.77
2018-03-18T05:24:25.998Z,11.88
2018-03-18T05:26:55.741Z,12.00
2018-03-18T05:29:26.494Z,13.23
2018-03-18T05:31:56.387Z,11.90
2018-03-18T05:34:26.929Z,11.00
2018-03-18T05:36:56.666Z,14.80
2018-03-18T05:39:27.034Z,20.47
2018-03-18T05:41:57.681Z,19.10
2018-03-18T05:44:28.114Z,15.03
2018-03-18T05:46:58.591Z,14.13
2018-03-18T05:49:28.341Z,15.10
2018-03-18T05:51:58.814Z,14.73
2018-03-18T05:54:28.607Z,14.10
2018-03-18T05:56:58.469Z,12.07
2018-03-18T05:59:28.261Z,12.97
2018-03-18T06:01:57.962Z,14.47
2018-03-18T06:04:28.002Z,10.97
2018-03-18T06:06:59.080Z,10.93
2018-03-18T06:09:29.567Z,14.90
2018-03-18T06:12:00.314Z,16.97
2018-03-18T06:14:30.074Z,14.50
2018-03-18T06:16:59.803Z,19.23
2018-03-18T06:19:29.545Z,16.90
2018-03-18T06:21:59.640Z,15.00
2018-03-18T06:24:30.626Z,12.20
2018-03-18T06:27:01.133Z,18.87
2018-03-18T06:29:30.827Z,12.40
2018-03-18T06:32:00.603Z,14.37
2018-03-18T06:34:31.466Z,14.52
2018-03-18T06:37:01.235Z,12.37
2018-03-18T06:39:31.106Z,12.97
2018-03-18T06:42:02.909Z,11.93
2018-03-18T06:44:32.672Z,12.63
2018-03-18T06:47:02.483Z,11.60
2018-03-18T06:49:32.284Z,12.57
2018-03-18T06:52:03.097Z,11.90
2018-03-18T06:54:32.837Z,11.40
2018-03-18T06:57:03.541Z,13.80
2018-03-18T06:59:33.237Z,19.10
2018-03-18T07:02:03.051Z,22.77
2018-03-18T07:04:33.341Z,21.44
2018-03-18T07:07:03.591Z,24.50
2018-03-18T07:09:33.776Z,24.50
2018-03-18T07:12:04.937Z,23.57
2018-03-18T07:14:35.486Z,24.73
2018-03-18T07:17:05.255Z,31.53
2018-03-18T07:19:34.997Z,26.67
2018-03-18T07:22:04.802Z,20.98
2018-03-18T07:24:35.660Z,23.67
2018-03-18T07:27:05.430Z,23.70
2018-03-18T07:29:36.160Z,19.42
2018-03-18T07:32:05.929Z,25.20
2018-03-18T07:34:35.766Z,29.53
2018-03-18T07:37:05.957Z,17.97
2018-03-18T07:39:36.106Z,15.00
2018-03-18T07:42:06.386Z,15.30
2018-03-18T07:44:36.570Z,16.30
2018-03-18T07:47:08.614Z,17.33
2018-03-18T07:49:38.358Z,16.60
2018-03-18T07:52:08.913Z,14.63
2018-03-18T07:54:38.675Z,19.23
2018-03-18T07:57:08.453Z,18.20
2018-03-18T07:59:38.495Z,15.48
2018-03-18T08:02:08.290Z,14.00
2018-03-18T08:04:39.026Z,19.62
2018-03-18T08:07:08.730Z,16.43
2018-03-18T08:09:38.641Z,13.48
2018-03-18T08:12:11.045Z,14.90
2018-03-18T08:14:40.754Z,12.90
2018-03-18T08:17:10.521Z,14.23
2018-03-18T08:19:40.469Z,14.70
2018-03-18T08:22:10.186Z,17.03
2018-03-18T08:24:40.043Z,13.30
2018-03-18T08:27:11.015Z,13.17
2018-03-18T08:29:40.812Z,13.25
2018-03-18T08:32:10.619Z,13.50
2018-03-18T08:34:40.391Z,19.70
2018-03-18T08:37:11.262Z,20.90
2018-03-18T08:39:41.289Z,28.73
2018-03-18T08:42:11.501Z,24.97
2018-03-18T08:44:41.775Z,15.83
2018-03-18T08:47:11.983Z,16.27
2018-03-18T08:49:42.908Z,15.54
2018-03-18T08:52:12.646Z,14.97
2018-03-18T08:54:42.586Z,15.40
2018-03-18T08:57:13.480Z,13.13
2018-03-18T08:59:43.408Z,11.98
2018-03-18T09:02:14.229Z,14.93
2018-03-18T09:04:43.930Z,18.35
2018-03-18T09:07:14.621Z,14.65
2018-03-18T09:09:45.130Z,14.40
2018-03-18T09:12:14.812Z,12.00
2018-03-18T09:14:45.339Z,12.55
2018-03-18T09:17:16.166Z,10.27
2018-03-18T09:19:45.919Z,12.97
2018-03-18T09:22:15.716Z,13.40
2018-03-18T09:24:46.403Z,12.00
2018-03-18T09:27:16.204Z,13.93
2018-03-18T09:29:46.676Z,10.73
2018-03-18T09:32:16.404Z,11.20
2018-03-18T09:34:47.881Z,10.30
2018-03-18T09:37:18.530Z,11.20
2018-03-18T09:39:48.246Z,13.17
2018-03-18T09:42:18.031Z,14.23
2018-03-18T09:44:48.508Z,9.93
2018-03-18T09:47:18.248Z,12.83
2018-03-18T09:49:47.958Z,11.03
2018-03-18T09:52:18.887Z,11.27
2018-03-18T09:54:48.605Z,19.40
2018-03-18T09:57:18.638Z,13.43
2018-03-18T09:59:48.364Z,11.83
2018-03-18T10:02:18.265Z,17.30
2018-03-18T10:04:49.262Z,13.80
2018-03-18T10:07:18.960Z,14.10
2018-03-18T10:09:48.966Z,16.02
2018-03-18T10:12:19.237Z,10.85
2018-03-18T10:14:50.525Z,12.25
2018-03-18T10:17:20.773Z,11.27
2018-03-18T10:19:50.554Z,18.30
2018-03-18T10:22:21.085Z,15.37
2018-03-18T10:24:51.797Z,16.43
2018-03-18T10:27:22.261Z,16.17
2018-03-18T10:29:52.021Z,16.43
2018-03-18T10:32:23.912Z,21.03
2018-03-18T10:34:54.540Z,22.40
2018-03-18T10:37:25.472Z,17.97
2018-03-18T10:39:56.546Z,21.87
2018-03-18T10:42:26.307Z,19.10
2018-03-18T10:44:56.041Z,25.10
2018-03-18T10:47:27.606Z,23.13
2018-03-18T10:49:57.300Z,21.00
2018-03-18T10:52:29.730Z,18.47
2018-03-18T10:54:59.431Z,16.40
2018-03-18T10:57:29.100Z,17.63
2018-03-18T10:59:58.831Z,19.10
2018-03-18T11:02:28.725Z,17.83
2018-03-18T11:04:59.383Z,18.97
2018-03-18T11:07:29.347Z,19.53
2018-03-18T11:10:00.080Z,20.70
2018-03-18T11:12:30.638Z,29.90
2018-03-18T11:15:01.151Z,16.90
2018-03-18T11:17:31.652Z,21.50
2018-03-18T11:20:01.402Z,20.80
2018-03-18T11:22:32.033Z,22.17
2018-03-18T11:25:02.512Z,19.10
2018-03-18T11:27:32.206Z,24.27
2018-03-18T11:30:02.173Z,20.80
2018-03-18T11:32:33.498Z,28.17
2018-03-18T11:35:03.346Z,23.80
2018-03-18T11:37:33.849Z,21.63
2018-03-18T11:40:03.584Z,23.97
2018-03-18T11:42:34.677Z,22.77
2018-03-18T11:45:04.429Z,25.00
2018-03-18T11:47:35.087Z,28.10
2018-03-18T11:50:04.845Z,24.67
2018-03-18T11:52:34.578Z,27.07
2018-03-18T11:55:05.159Z,33.00
2018-03-18T11:57:35.483Z,26.90
2018-03-18T12:00:05.617Z,27.02
2018-03-18T12:02:35.306Z,32.20
2018-03-18T12:05:05.149Z,24.40
2018-03-18T12:07:34.882Z,23.50
2018-03-18T12:10:05.466Z,28.83
2018-03-18T12:12:35.244Z,24.20
2018-03-18T12:15:05.029Z,23.70
2018-03-18T12:17:34.910Z,31.37
2018-03-18T12:20:04.726Z,36.90
2018-03-18T12:22:34.451Z,28.10
2018-03-18T12:25:04.130Z,41.03
2018-03-18T12:27:33.899Z,28.20
2018-03-18T12:30:03.600Z,28.57
2018-03-18T12:32:34.110Z,30.12
2018-03-18T12:35:04.619Z,27.03
2018-03-18T12:37:34.622Z,29.85
2018-03-18T12:40:15.421Z,31.30
2018-03-18T12:42:56.149Z,33.35
2018-03-18T12:45:25.934Z,27.80
2018-03-18T12:47:55.862Z,31.50
2018-03-18T12:50:25.639Z,41.00
2018-03-18T12:52:55.353Z,33.20
2018-03-18T12:55:26.091Z,36.27
2018-03-18T12:57:57.141Z,39.70
2018-03-18T13:00:26.878Z,37.80
2018-03-18T13:02:56.586Z,37.13
2018-03-18T13:05:26.333Z,39.83
2018-03-18T13:07:56.026Z,38.30
2018-03-18T13:10:25.874Z,36.50
2018-03-18T13:12:56.457Z,34.27
2018-03-18T13:15:26.157Z,37.00
2018-03-18T13:17:55.905Z,43.97
2018-03-18T13:20:25.597Z,37.30
2018-03-18T13:22:56.280Z,38.00
2018-03-18T13:25:26.789Z,40.77
2018-03-18T13:27:56.776Z,40.83
2018-03-18T13:30:26.613Z,45.90
2018-03-18T13:32:56.442Z,47.50
2018-03-18T13:35:26.509Z,43.43
2018-03-18T13:37:56.741Z,38.60
2018-03-18T13:40:26.869Z,39.75
2018-03-18T13:42:57.346Z,45.38
2018-03-18T13:45:28.127Z,42.92
2018-03-18T13:47:58.242Z,44.47
2018-03-18T13:50:28.061Z,40.20
2018-03-18T13:52:58.785Z,43.00
2018-03-18T13:55:29.485Z,34.17
2018-03-18T13:58:00.075Z,35.73
2018-03-18T14:00:29.806Z,41.90
2018-03-18T14:03:00.331Z,43.83
2018-03-18T14:05:30.737Z,35.00
2018-03-18T14:08:00.470Z,39.73
2018-03-18T14:10:31.202Z,41.60
2018-03-18T14:13:01.899Z,40.07
2018-03-18T14:15:31.781Z,38.10
2018-03-18T14:18:01.547Z,33.43
2018-03-18T14:20:31.304Z,34.87
2018-03-18T14:23:01.122Z,44.33
2018-03-18T14:25:32.064Z,29.75
2018-03-18T14:28:01.813Z,30.20
2018-03-18T14:30:31.622Z,38.20
2018-03-18T14:33:01.421Z,32.97
2018-03-18T14:35:32.103Z,40.87
2018-03-18T14:38:03.016Z,32.30
2018-03-18T14:40:32.797Z,35.30
2018-03-18T14:43:02.565Z,40.20
2018-03-18T14:45:32.325Z,44.97
2018-03-18T14:48:02.558Z,34.15
2018-03-18T14:50:32.477Z,31.57
2018-03-18T14:53:04.086Z,30.48
2018-03-18T14:55:33.838Z,33.43
2018-03-18T14:58:03.590Z,18.53
2018-03-18T15:00:33.301Z,21.57
2018-03-18T15:03:04.126Z,17.57
2018-03-18T15:05:34.736Z,22.53
2018-03-18T15:08:04.563Z,23.63
2018-03-18T15:10:35.473Z,23.30
2018-03-18T15:13:05.294Z,19.00
2018-03-18T15:15:35.121Z,30.50
2018-03-18T15:18:06.686Z,24.13
2018-03-18T15:20:36.669Z,36.87
2018-03-18T15:23:06.405Z,34.50
2018-03-18T15:25:37.341Z,36.93
2018-03-18T15:28:08.121Z,42.33
2018-03-18T15:30:37.873Z,38.17
2018-03-18T15:33:07.688Z,27.70
2018-03-18T15:35:37.503Z,42.90
2018-03-18T15:38:08.105Z,22.50
2018-03-18T15:40:37.853Z,25.05
2018-03-18T15:43:08.347Z,38.55
2018-03-18T15:45:38.126Z,21.35
2018-03-18T15:48:07.813Z,29.83
2018-03-18T15:50:38.630Z,22.93
2018-03-18T15:53:09.230Z,16.87
2018-03-18T15:55:39.136Z,22.17
2018-03-18T15:58:09.722Z,37.93
2018-03-18T16:00:40.225Z,28.23
2018-03-18T16:03:10.003Z,18.97
2018-03-18T16:05:39.756Z,17.77
2018-03-18T16:08:09.525Z,30.47
2018-03-18T16:10:39.207Z,24.15
2018-03-18T16:13:09.112Z,19.47
2018-03-18T16:15:39.338Z,17.33
2018-03-18T16:18:10.271Z,23.63
2018-03-18T16:20:40.761Z,27.25
2018-03-18T16:23:10.509Z,22.03
2018-03-18T16:25:40.986Z,16.98
2018-03-18T16:28:11.252Z,27.97
2018-03-18T16:30:52.921Z,20.83
2018-03-18T16:33:22.653Z,18.47
2018-03-18T16:35:53.437Z,17.23
2018-03-18T16:38:23.138Z,19.33
2018-03-18T16:40:52.852Z,30.77
2018-03-18T16:43:22.578Z,19.33
2018-03-18T16:45:52.475Z,15.60
2018-03-18T16:48:22.179Z,13.40
2018-03-18T16:50:52.022Z,12.15
2018-03-18T16:53:22.295Z,8.80
2018-03-18T16:55:52.529Z,7.90
2018-03-18T16:58:22.882Z,13.20
2018-03-18T17:00:52.800Z,13.60
2018-03-18T17:03:23.989Z,17.20
2018-03-18T17:05:54.457Z,20.90
2018-03-18T17:08:24.247Z,21.00
2018-03-18T17:10:54.024Z,24.27
2018-03-18T17:13:24.591Z,14.80
2018-03-18T17:15:55.711Z,13.33
2018-03-18T17:18:25.508Z,11.30
2018-03-18T17:20:56.066Z,16.57
2018-03-18T17:23:25.825Z,23.77
2018-03-18T17:25:55.592Z,11.57
2018-03-18T17:28:25.269Z,11.60
2018-03-18T17:30:56.090Z,18.67
2018-03-18T17:33:26.588Z,11.13
2018-03-18T17:35:56.262Z,21.20
2018-03-18T17:38:25.951Z,20.83
2018-03-18T17:40:56.761Z,13.57
2018-03-18T17:43:26.457Z,13.13
2018-03-18T17:46:07.658Z,15.93
2018-03-18T17:48:48.410Z,22.70
2018-03-18T17:51:29.232Z,20.33
2018-03-18T17:54:10.674Z,21.80
2018-03-18T17:56:40.539Z,22.48
2018-03-18T17:59:10.722Z,17.53
2018-03-18T18:01:40.451Z,20.27
2018-03-18T18:04:10.947Z,15.10
2018-03-18T18:06:40.712Z,8.80
2018-03-18T18:09:10.375Z,16.70
2018-03-18T18:11:40.172Z,12.17
2018-03-18T18:14:09.910Z,12.23
2018-03-18T18:16:40.893Z,7.62
2018-03-18T18:19:10.617Z,17.20
2018-03-18T18:21:40.285Z,15.50
2018-03-18T18:24:10.787Z,13.37
2018-03-18T18:26:40.561Z,14.35
2018-03-18T18:29:10.292Z,11.87
2018-03-18T18:31:40.349Z,26.00
2018-03-18T18:34:10.593Z,10.23
2018-03-18T18:36:41.571Z,9.53
2018-03-18T18:39:11.410Z,16.70
2018-03-18T18:41:42.730Z,11.20
2018-03-18T18:44:12.490Z,15.57
2018-03-18T18:46:42.346Z,9.60
2018-03-18T18:49:12.062Z,24.53
2018-03-18T18:51:42.924Z,19.40
2018-03-18T18:54:12.824Z,9.90
2018-03-18T18:56:43.434Z,24.17
2018-03-18T18:59:13.198Z,9.93
2018-03-18T19:01:43.919Z,12.33
2018-03-18T19:04:14.446Z,18.43
2018-03-18T19:06:44.135Z,11.37
2018-03-18T19:09:13.789Z,18.30
2018-03-18T19:11:43.869Z,12.80
2018-03-18T19:14:14.896Z,15.32
2018-03-18T19:16:45.006Z,14.90
2018-03-18T19:19:14.793Z,18.97
2018-03-18T19:21:45.487Z,12.30
2018-03-18T19:24:15.970Z,10.33
2018-03-18T19:26:45.685Z,10.20
2018-03-18T19:29:15.484Z,14.67
2018-03-18T19:31:46.204Z,13.13
2018-03-18T19:34:15.882Z,9.43
2018-03-18T19:36:46.731Z,8.13
2018-03-18T19:39:16.572Z,11.80
2018-03-18T19:41:47.161Z,11.60
2018-03-18T19:44:17.663Z,9.80
2018-03-18T19:46:47.401Z,11.60
2018-03-18T19:49:17.841Z,10.70
2018-03-18T19:51:48.310Z,17.62
2018-03-18T19:54:17.953Z,10.53
2018-03-18T19:56:47.727Z,11.73
2018-03-18T19:59:18.985Z,12.87
2018-03-18T20:01:48.709Z,11.43
2018-03-18T20:04:18.451Z,15.00
2018-03-18T20:06:48.585Z,9.68
2018-03-18T20:09:19.457Z,8.02
2018-03-18T20:11:49.226Z,12.43
2018-03-18T20:14:19.203Z,12.90
2018-03-18T20:16:49.440Z,15.83
2018-03-18T20:19:19.667Z,19.65
2018-03-18T20:21:50.629Z,9.03
2018-03-18T20:24:20.412Z,16.53
2018-03-18T20:26:50.163Z,12.97
2018-03-18T20:29:21.269Z,15.43
2018-03-18T20:31:51.770Z,14.25
2018-03-18T20:34:21.484Z,15.93
2018-03-18T20:36:51.169Z,14.13
2018-03-18T20:39:21.262Z,16.97
2018-03-18T20:41:52.370Z,17.20
2018-03-18T20:44:22.905Z,27.83
2018-03-18T20:46:53.426Z,15.80
2018-03-18T20:49:23.872Z,10.70
2018-03-18T20:51:54.403Z,18.97
2018-03-18T20:54:24.262Z,16.97
2018-03-18T20:56:53.984Z,15.10
2018-03-18T20:59:23.724Z,9.70
2018-03-18T21:01:54.302Z,16.23
2018-03-18T21:04:25.241Z,15.13
2018-03-18T21:06:54.982Z,18.20
2018-03-18T21:09:24.672Z,13.43
2018-03-18T21:11:54.388Z,18.05
2018-03-18T21:14:24.221Z,16.77
2018-03-18T21:16:54.489Z,19.52
2018-03-18T21:19:25.368Z,24.03
2018-03-18T21:21:55.104Z,22.87
2018-03-18T21:24:25.839Z,18.40
2018-03-18T21:26:56.310Z,26.13
2018-03-18T21:29:26.017Z,15.27
2018-03-18T21:31:55.740Z,29.90
2018-03-18T21:34:36.854Z,16.03
2018-03-18T21:37:06.773Z,27.97
2018-03-18T21:39:37.238Z,27.63
2018-03-18T21:42:06.928Z,29.57
2018-03-18T21:44:36.778Z,25.40
2018-03-18T21:47:06.881Z,23.90
2018-03-18T21:49:37.062Z,26.40
2018-03-18T21:52:08.346Z,19.10
2018-03-18T21:54:38.006Z,17.00
2018-03-18T21:57:08.665Z,38.67
2018-03-18T21:59:39.678Z,22.80
2018-03-18T22:02:09.424Z,22.40
2018-03-18T22:04:39.212Z,31.13
2018-03-18T22:07:09.758Z,26.00
2018-03-18T22:09:39.529Z,20.30
2018-03-18T22:12:09.975Z,21.70
2018-03-18T22:14:39.931Z,34.57
2018-03-18T22:17:09.642Z,29.40
2018-03-18T22:19:40.565Z,19.98
2018-03-18T22:22:11.070Z,28.03
2018-03-18T22:24:41.521Z,24.67
2018-03-18T22:27:11.311Z,22.00
2018-03-18T22:29:41.812Z,18.07
2018-03-18T22:32:11.553Z,20.23
2018-03-18T22:34:42.058Z,22.35
2018-03-18T22:37:11.773Z,27.27
2018-03-18T22:39:41.502Z,22.17
2018-03-18T22:42:11.598Z,20.50
2018-03-18T22:44:42.537Z,23.30
2018-03-18T22:47:12.228Z,16.80
2018-03-18T22:49:43.078Z,21.40
2018-03-18T22:52:14.514Z,32.03
2018-03-18T22:54:44.226Z,19.80
2018-03-18T22:57:13.981Z,21.80
2018-03-18T22:59:44.041Z,17.70
2018-03-18T23:02:13.722Z,14.60
2018-03-18T23:04:43.721Z,14.60
2018-03-18T23:07:13.806Z,13.13
2018-03-18T23:09:43.958Z,19.83
2018-03-18T23:12:15.160Z,18.20
2018-03-18T23:14:44.871Z,18.63
2018-03-18T23:17:15.370Z,16.47
2018-03-18T23:19:45.084Z,16.10
2018-03-18T23:22:15.001Z,19.33
2018-03-18T23:24:45.269Z,21.27
2018-03-18T23:27:16.528Z,18.08
2018-03-18T23:29:47.053Z,17.30
2018-03-18T23:32:17.541Z,22.90
2018-03-18T23:34:47.295Z,26.25
2018-03-18T23:37:17.838Z,29.03
2018-03-18T23:39:47.556Z,31.33
2018-03-18T23:42:17.278Z,21.00
2018-03-18T23:44:47.057Z,26.03
2018-03-18T23:47:18.018Z,26.77
2018-03-18T23:49:47.733Z,33.13
2018-03-18T23:52:17.696Z,27.80
2018-03-18T23:54:47.897Z,29.10
2018-03-18T23:57:18.079Z,19.83
2018-03-18T23:59:49.146Z,35.68
